createdAt,value
2023-02-07T00:01:20.476Z,102499.28
2023-02-07T00:03:47.989Z,102484.19
2023-02-07T00:06:18.328Z,102477.75
2023-02-07T00:08:46.421Z,102477.50
2023-02-07T00:11:16.888Z,102484.22
2023-02-07T00:13:44.948Z,102484.97
2023-02-07T00:16:12.919Z,102479.25
2023-02-07T00:18:41.078Z,102468.41
2023-02-07T00:21:09.856Z,102472.13
2023-02-07T00:23:38.734Z,102472.94
2023-02-07T00:26:07.775Z,102467.84
2023-02-07T00:28:38.259Z,102452.06
2023-02-07T00:31:07.481Z,102457.47
2023-02-07T00:33:35.811Z,102442.59
2023-02-07T00:36:05.152Z,102439.91
2023-02-07T00:41:46.123Z,102414.06
2023-02-07T00:44:13.766Z,102410.25
2023-02-07T00:46:41.322Z,102422.47
2023-02-07T00:49:40.912Z,102413.81
2023-02-07T00:52:08.337Z,102428.44
2023-02-07T00:57:25.699Z,102428.09
2023-02-07T00:59:53.206Z,102418.50
2023-02-07T01:02:20.695Z,102414.09
2023-02-07T01:04:48.311Z,102406.53
2023-02-07T01:07:15.791Z,102398.69
2023-02-07T01:09:43.521Z,102396.00
2023-02-07T01:15:12.698Z,102399.97
2023-02-07T01:17:40.541Z,102396.94
2023-02-07T01:20:09.243Z,102405.16
2023-02-07T01:22:37.843Z,102410.88
2023-02-07T01:25:06.121Z,102416.63
2023-02-07T01:27:36.420Z,102412.25
2023-02-07T01:30:04.741Z,102419.44
2023-02-07T01:32:34.593Z,102424.97
2023-02-07T01:35:03.423Z,102430.22
2023-02-07T01:37:33.097Z,102421.34
2023-02-07T01:40:00.605Z,102423.69
2023-02-07T01:45:33.816Z,102428.00
2023-02-07T01:48:04.693Z,102427.25
2023-02-07T01:50:32.558Z,102429.59
2023-02-07T01:53:01.582Z,102414.06
2023-02-07T01:55:31.166Z,102422.03
2023-02-07T01:57:59.139Z,102425.66
2023-02-07T02:00:26.818Z,102431.28
2023-02-07T02:02:54.350Z,102428.81
2023-02-07T02:05:23.551Z,102425.94
2023-02-07T02:07:51.102Z,102409.28
2023-02-07T02:10:20.467Z,102410.19
2023-02-07T02:16:06.976Z,102406.09
2023-02-07T02:18:51.443Z,102414.56
2023-02-07T02:25:14.771Z,102408.66
2023-02-07T02:30:59.127Z,102410.28
2023-02-07T02:33:37.715Z,102414.22
2023-02-07T02:36:11.213Z,102411.78
2023-02-07T02:38:44.856Z,102416.03
2023-02-07T02:41:15.496Z,102414.41
2023-02-07T02:43:46.372Z,102413.78
2023-02-07T02:49:15.983Z,102409.34
2023-02-07T02:51:43.508Z,102412.44
2023-02-07T02:57:30.770Z,102416.09
2023-02-07T03:00:17.523Z,102420.25
2023-02-07T03:02:53.219Z,102425.75
2023-02-07T03:05:32.009Z,102411.19
2023-02-07T03:08:05.496Z,102405.91
2023-02-07T03:13:50.756Z,102408.69
2023-02-07T03:16:21.710Z,102404.91
2023-02-07T03:18:55.146Z,102406.69
2023-02-07T03:21:28.248Z,102403.72
2023-02-07T03:23:58.371Z,102414.25
2023-02-07T03:26:28.866Z,102414.91
2023-02-07T03:28:57.649Z,102411.66
2023-02-07T03:31:26.440Z,102406.66
2023-02-07T03:33:57.090Z,102395.28
2023-02-07T03:36:29.959Z,102400.19
2023-02-07T03:38:57.466Z,102399.25
2023-02-07T03:41:29.427Z,102404.59
2023-02-07T03:43:58.812Z,102407.63
2023-02-07T03:46:26.322Z,102400.34
2023-02-07T03:48:53.707Z,102401.22
2023-02-07T03:51:21.150Z,102403.69
2023-02-07T03:53:49.899Z,102405.66
2023-02-07T03:56:17.306Z,102405.59
2023-02-07T03:58:44.952Z,102402.78
2023-02-07T04:01:12.643Z,102393.94
2023-02-07T04:03:43.164Z,102390.88
2023-02-07T04:06:10.744Z,102390.88
2023-02-07T04:08:38.430Z,102388.28
2023-02-07T04:11:07.356Z,102393.97
2023-02-07T04:13:34.757Z,102381.72
2023-02-07T04:16:02.572Z,102375.28
2023-02-07T04:18:30.024Z,102383.16
2023-02-07T04:21:01.691Z,102377.56
2023-02-07T04:23:29.184Z,102367.94
2023-02-07T04:29:00.662Z,102375.78
2023-02-07T04:31:28.463Z,102391.34
2023-02-07T04:33:55.915Z,102396.63
2023-02-07T04:36:23.735Z,102395.88
2023-02-07T04:38:51.233Z,102391.94
2023-02-07T04:41:56.256Z,102394.38
2023-02-07T04:44:25.036Z,102390.44
2023-02-07T04:46:52.497Z,102395.69
2023-02-07T04:49:20.026Z,102395.19
2023-02-07T04:54:50.348Z,102394.47
2023-02-07T04:57:17.834Z,102386.75
2023-02-07T04:59:46.626Z,102388.06
2023-02-07T05:02:14.213Z,102384.19
2023-02-07T05:04:41.681Z,102380.53
2023-02-07T05:07:09.190Z,102375.75
2023-02-07T05:09:36.592Z,102387.53
2023-02-07T05:12:04.161Z,102387.28
2023-02-07T05:14:31.570Z,102392.19
2023-02-07T05:17:00.348Z,102384.41
2023-02-07T05:19:27.812Z,102386.13
2023-02-07T05:24:57.341Z,102388.63
2023-02-07T05:27:24.841Z,102387.41
2023-02-07T05:33:07.327Z,102384.03
2023-02-07T05:38:33.359Z,102386.00
2023-02-07T05:41:01.030Z,102385.22
2023-02-07T05:43:28.506Z,102376.78
2023-02-07T05:45:56.034Z,102379.91
2023-02-07T05:48:24.814Z,102386.31
2023-02-07T05:50:52.241Z,102390.53
2023-02-07T05:53:19.689Z,102385.41
2023-02-07T05:55:47.091Z,102394.00
2023-02-07T06:01:13.424Z,102395.09
2023-02-07T06:03:42.269Z,102403.78
2023-02-07T06:06:09.717Z,102413.94
2023-02-07T06:08:37.142Z,102413.94
2023-02-07T06:11:04.774Z,102417.59
2023-02-07T06:13:32.263Z,102412.53
2023-02-07T06:15:59.982Z,102419.78
2023-02-07T06:18:27.453Z,102422.31
2023-02-07T06:20:56.218Z,102421.91
2023-02-07T06:26:14.513Z,102432.63
2023-02-07T06:31:30.321Z,102426.38
2023-02-07T06:33:57.736Z,102427.25
2023-02-07T06:36:26.503Z,102423.78
2023-02-07T06:38:55.431Z,102425.63
2023-02-07T06:41:23.023Z,102427.03
2023-02-07T06:43:50.463Z,102435.47
2023-02-07T06:46:18.012Z,102435.09
2023-02-07T06:48:45.494Z,102452.53
2023-02-07T06:51:13.170Z,102447.13
2023-02-07T06:53:41.909Z,102443.03
2023-02-07T06:56:09.318Z,102441.88
2023-02-07T06:58:36.764Z,102438.41
2023-02-07T07:01:05.169Z,102441.88
2023-02-07T07:03:32.634Z,102448.72
2023-02-07T07:06:00.283Z,102457.31
2023-02-07T07:08:28.316Z,102458.97
2023-02-07T07:13:52.679Z,102458.72
2023-02-07T07:16:20.200Z,102448.16
2023-02-07T07:18:47.691Z,102451.75
2023-02-07T07:21:15.342Z,102461.22
2023-02-07T07:23:42.744Z,102458.94
2023-02-07T07:26:10.389Z,102455.59
2023-02-07T07:28:37.881Z,102458.63
2023-02-07T07:31:08.429Z,102463.28
2023-02-07T07:33:36.141Z,102457.63
2023-02-07T07:36:04.522Z,102467.22
2023-02-07T07:41:34.281Z,102464.28
2023-02-07T07:44:01.704Z,102460.28
2023-02-07T07:46:30.607Z,102463.56
2023-02-07T07:48:58.195Z,102463.25
2023-02-07T07:51:41.038Z,102462.88
2023-02-07T07:54:08.525Z,102460.19
2023-02-07T07:59:38.307Z,102466.97
2023-02-07T08:02:07.459Z,102468.84
2023-02-07T08:04:34.960Z,102470.81
2023-02-07T08:07:02.405Z,102465.94
2023-02-07T08:12:18.319Z,102460.06
2023-02-07T08:14:45.731Z,102459.03
2023-02-07T08:17:14.487Z,102465.44
2023-02-07T08:19:41.930Z,102469.19
2023-02-07T08:22:09.372Z,102459.44
2023-02-07T08:24:36.835Z,102461.16
2023-02-07T08:27:04.363Z,102451.34
2023-02-07T08:29:31.895Z,102458.31
2023-02-07T08:31:59.382Z,102454.00
2023-02-07T08:34:28.792Z,102456.88
2023-02-07T08:37:27.977Z,102464.19
2023-02-07T08:39:55.717Z,102463.75
2023-02-07T08:42:23.194Z,102455.31
2023-02-07T08:44:52.017Z,102465.09
2023-02-07T08:47:19.672Z,102465.69
2023-02-07T08:49:48.430Z,102467.09
2023-02-07T08:52:15.916Z,102464.84
2023-02-07T08:54:43.412Z,102461.44
2023-02-07T08:57:10.859Z,102461.34
2023-02-07T08:59:38.270Z,102463.31
2023-02-07T09:05:06.050Z,102448.28
2023-02-07T09:07:33.729Z,102440.63
2023-02-07T09:10:02.655Z,102434.19
2023-02-07T09:12:30.969Z,102435.84
2023-02-07T09:14:58.398Z,102431.44
2023-02-07T09:17:50.960Z,102420.88
2023-02-07T09:20:20.060Z,102421.84
2023-02-07T09:23:19.700Z,102410.06
2023-02-07T09:25:48.503Z,102419.91
2023-02-07T09:28:16.087Z,102416.25
2023-02-07T09:30:44.309Z,102408.47
2023-02-07T09:33:12.577Z,102404.78
2023-02-07T09:35:43.574Z,102404.47
2023-02-07T09:38:13.683Z,102408.19
2023-02-07T09:40:41.573Z,102423.84
2023-02-07T09:43:38.391Z,102419.50
2023-02-07T09:46:08.600Z,102426.38
2023-02-07T09:48:45.704Z,102427.31
2023-02-07T09:51:19.669Z,102421.81
2023-02-07T09:53:51.218Z,102422.66
2023-02-07T09:59:26.063Z,102426.75
2023-02-07T10:01:57.319Z,102425.31
2023-02-07T10:04:31.107Z,102429.66
2023-02-07T10:07:00.686Z,102432.19
2023-02-07T10:09:29.948Z,102437.56
2023-02-07T10:12:02.051Z,102429.25
2023-02-07T10:14:41.267Z,102432.66
2023-02-07T10:17:31.603Z,102437.03
2023-02-07T10:20:07.183Z,102434.97
2023-02-07T10:22:44.316Z,102434.16
2023-02-07T10:25:22.743Z,102431.16
2023-02-07T10:27:59.053Z,102432.75
2023-02-07T10:30:28.543Z,102430.78
2023-02-07T10:33:01.387Z,102437.69
2023-02-07T10:35:34.485Z,102421.41
2023-02-07T10:38:04.648Z,102433.59
2023-02-07T10:40:40.048Z,102444.66
2023-02-07T10:43:28.280Z,102437.59
2023-02-07T10:46:04.493Z,102441.75
2023-02-07T10:51:37.928Z,102440.25
2023-02-07T10:54:08.792Z,102429.50
2023-02-07T10:59:50.515Z,102431.84
2023-02-07T11:05:38.312Z,102412.72
2023-02-07T11:08:10.101Z,102414.56
2023-02-07T11:11:59.755Z,102401.97
2023-02-07T11:14:28.358Z,102406.34
2023-02-07T11:16:56.604Z,102397.47
2023-02-07T11:19:25.654Z,102399.00
2023-02-07T11:21:54.959Z,102394.97
2023-02-07T11:24:28.242Z,102387.50
2023-02-07T11:26:58.584Z,102393.78
2023-02-07T11:29:27.636Z,102396.59
2023-02-07T11:31:57.816Z,102383.25
2023-02-07T11:34:41.421Z,102379.06
2023-02-07T11:37:21.284Z,102381.06
2023-02-07T11:39:52.127Z,102373.88
2023-02-07T11:42:21.979Z,102373.09
2023-02-07T11:44:53.575Z,102371.91
2023-02-07T11:47:24.381Z,102362.91
2023-02-07T11:49:54.460Z,102368.19
2023-02-07T11:52:22.330Z,102371.84
2023-02-07T11:54:52.712Z,102370.63
2023-02-07T11:57:20.958Z,102375.28
2023-02-07T11:59:56.444Z,102370.53
2023-02-07T12:02:25.267Z,102367.84
2023-02-07T12:04:54.536Z,102375.78
2023-02-07T12:07:25.966Z,102370.00
2023-02-07T12:12:57.450Z,102362.13
2023-02-07T12:18:30.823Z,102375.06
2023-02-07T12:21:03.377Z,102370.81
2023-02-07T12:23:43.264Z,102378.56
2023-02-07T12:26:18.755Z,102365.50
2023-02-07T12:28:58.770Z,102366.91
2023-02-07T12:32:06.174Z,102366.13
2023-02-07T12:34:41.999Z,102372.56
2023-02-07T12:37:15.213Z,102370.88
2023-02-07T12:39:47.062Z,102366.03
2023-02-07T12:45:05.527Z,102364.75
2023-02-07T12:50:54.310Z,102365.25
2023-02-07T12:53:38.208Z,102367.56
2023-02-07T12:56:13.202Z,102362.72
2023-02-07T12:58:48.795Z,102355.81
2023-02-07T13:01:22.055Z,102361.84
2023-02-07T13:04:11.848Z,102355.75
2023-02-07T13:06:45.630Z,102353.59
2023-02-07T13:09:17.818Z,102346.03
2023-02-07T13:11:49.127Z,102350.13
2023-02-07T13:14:26.413Z,102347.56
2023-02-07T13:17:03.563Z,102344.50
2023-02-07T13:19:35.753Z,102343.22
2023-02-07T13:22:06.840Z,102342.94
2023-02-07T13:24:36.518Z,102342.97
2023-02-07T13:27:06.972Z,102339.72
2023-02-07T13:29:36.466Z,102338.44
2023-02-07T13:32:12.200Z,102339.63
2023-02-07T13:34:45.206Z,102335.78
2023-02-07T13:37:16.990Z,102334.19
2023-02-07T13:39:49.584Z,102336.06
2023-02-07T13:42:22.648Z,102330.78
2023-02-07T13:44:57.493Z,102326.94
2023-02-07T13:47:36.185Z,102334.41
2023-02-07T13:50:12.186Z,102330.50
2023-02-07T13:52:44.422Z,102324.53
2023-02-07T13:55:21.564Z,102329.31
2023-02-07T13:58:06.695Z,102333.38
2023-02-07T14:00:37.114Z,102334.94
2023-02-07T14:03:08.939Z,102325.06
2023-02-07T14:05:40.462Z,102327.13
2023-02-07T14:08:24.646Z,102336.56
2023-02-07T14:14:04.938Z,102326.50
2023-02-07T14:16:53.633Z,102335.72
2023-02-07T14:19:51.050Z,102339.56
2023-02-07T14:22:20.876Z,102325.22
2023-02-07T14:24:50.252Z,102318.94
2023-02-07T14:27:30.027Z,102325.59
2023-02-07T14:30:30.451Z,102335.50
2023-02-07T14:33:13.674Z,102324.81
2023-02-07T14:36:02.678Z,102326.66
2023-02-07T14:38:33.774Z,102327.16
2023-02-07T14:41:11.202Z,102316.38
2023-02-07T14:43:45.511Z,102322.53
2023-02-07T14:46:16.334Z,102330.88
2023-02-07T14:49:21.365Z,102332.81
2023-02-07T14:51:51.616Z,102330.53
2023-02-07T14:54:24.540Z,102320.69
2023-02-07T14:57:03.243Z,102329.75
2023-02-07T14:59:35.440Z,102321.97
2023-02-07T15:02:31.481Z,102322.78
2023-02-07T15:04:59.296Z,102334.00
2023-02-07T15:07:28.078Z,102327.38
2023-02-07T15:09:55.469Z,102334.34
2023-02-07T15:12:27.548Z,102333.41
2023-02-07T15:14:57.624Z,102335.66
2023-02-07T15:17:33.422Z,102331.88
2023-02-07T15:20:03.767Z,102338.19
2023-02-07T15:22:32.562Z,102342.38
2023-02-07T15:25:00.516Z,102343.53
2023-02-07T15:27:30.179Z,102344.31
2023-02-07T15:29:59.964Z,102350.31
2023-02-07T15:32:30.765Z,102345.84
2023-02-07T15:34:58.593Z,102356.47
2023-02-07T15:37:27.622Z,102348.41
2023-02-07T15:42:54.219Z,102349.28
2023-02-07T15:45:29.874Z,102347.94
2023-02-07T15:47:58.807Z,102341.81
2023-02-07T15:50:28.121Z,102348.16
2023-02-07T15:52:57.262Z,102353.22
2023-02-07T15:58:26.578Z,102350.59
2023-02-07T16:04:09.635Z,102348.81
2023-02-07T16:06:37.054Z,102353.75
2023-02-07T16:09:05.241Z,102353.84
2023-02-07T16:11:39.550Z,102341.75
2023-02-07T16:14:18.160Z,102353.94
2023-02-07T16:16:50.006Z,102341.75
2023-02-07T16:19:18.964Z,102341.50
2023-02-07T16:21:47.819Z,102354.44
2023-02-07T16:24:17.580Z,102349.84
2023-02-07T16:26:45.247Z,102348.25
2023-02-07T16:32:02.894Z,102355.91
2023-02-07T16:34:30.471Z,102347.91
2023-02-07T16:36:57.934Z,102348.47
2023-02-07T16:39:25.377Z,102351.72
2023-02-07T16:41:56.149Z,102351.72
2023-02-07T16:47:24.350Z,102351.88
2023-02-07T16:49:51.840Z,102350.06
2023-02-07T16:52:19.620Z,102341.94
2023-02-07T16:54:47.653Z,102349.91
2023-02-07T16:57:15.671Z,102350.06
2023-02-07T16:59:43.449Z,102359.28
2023-02-07T17:02:14.680Z,102357.28
2023-02-07T17:07:45.797Z,102351.56
2023-02-07T17:10:20.803Z,102349.25
2023-02-07T17:12:48.711Z,102352.44
2023-02-07T17:15:16.670Z,102361.44
2023-02-07T17:17:44.098Z,102356.78
2023-02-07T17:20:18.482Z,102358.00
2023-02-07T17:22:48.270Z,102351.50
2023-02-07T17:25:16.004Z,102356.22
2023-02-07T17:27:43.513Z,102364.94
2023-02-07T17:30:14.913Z,102367.81
2023-02-07T17:32:42.627Z,102370.16
2023-02-07T17:35:10.364Z,102363.94
2023-02-07T17:37:37.799Z,102366.84
2023-02-07T17:40:26.338Z,102365.66
2023-02-07T17:42:54.101Z,102365.00
2023-02-07T17:45:21.880Z,102376.47
2023-02-07T17:47:49.442Z,102368.13
2023-02-07T17:53:05.557Z,102366.63
2023-02-07T17:55:34.870Z,102359.16
2023-02-07T18:00:50.565Z,102364.03
2023-02-07T18:03:18.194Z,102362.25
2023-02-07T18:05:45.905Z,102363.66
2023-02-07T18:08:14.940Z,102369.59
2023-02-07T18:10:43.732Z,102365.50
2023-02-07T18:13:11.266Z,102373.44
2023-02-07T18:15:38.797Z,102366.84
2023-02-07T18:18:06.528Z,102368.13
2023-02-07T18:20:35.369Z,102368.28
2023-02-07T18:23:07.510Z,102365.72
2023-02-07T18:25:35.514Z,102368.50
2023-02-07T18:31:11.305Z,102371.13
2023-02-07T18:33:38.930Z,102369.94
2023-02-07T18:36:07.512Z,102363.19
2023-02-07T18:38:35.000Z,102368.00
2023-02-07T18:41:09.776Z,102376.00
2023-02-07T18:43:37.669Z,102371.88
2023-02-07T18:46:09.911Z,102373.38
2023-02-07T18:48:37.523Z,102375.44
2023-02-07T18:51:06.519Z,102374.75
2023-02-07T18:53:34.520Z,102367.69
2023-02-07T18:56:08.427Z,102368.34
2023-02-07T19:01:35.423Z,102361.63
2023-02-07T19:04:02.981Z,102361.13
2023-02-07T19:06:32.535Z,102351.19
2023-02-07T19:11:50.794Z,102360.84
2023-02-07T19:14:19.764Z,102367.47
2023-02-07T19:16:49.376Z,102359.59
2023-02-07T19:19:16.837Z,102354.50
2023-02-07T19:21:44.844Z,102356.81
2023-02-07T19:24:15.678Z,102360.47
2023-02-07T19:26:43.659Z,102366.41
2023-02-07T19:29:14.419Z,102366.19
2023-02-07T19:31:43.427Z,102365.13
2023-02-07T19:37:02.158Z,102360.03
2023-02-07T19:39:29.622Z,102376.47
2023-02-07T19:41:57.065Z,102370.94
2023-02-07T19:44:24.571Z,102380.16
2023-02-07T19:46:51.979Z,102377.19
2023-02-07T19:49:19.397Z,102380.22
2023-02-07T19:51:47.953Z,102367.03
2023-02-07T19:54:18.179Z,102365.13
2023-02-07T19:56:46.925Z,102366.97
2023-02-07T19:59:14.337Z,102359.94
2023-02-07T20:01:41.927Z,102372.06
2023-02-07T20:04:09.458Z,102360.59
2023-02-07T20:06:36.950Z,102358.13
2023-02-07T20:09:06.580Z,102358.72
2023-02-07T20:14:37.874Z,102356.09
2023-02-07T20:17:05.381Z,102355.19
2023-02-07T20:19:32.783Z,102351.81
2023-02-07T20:22:00.345Z,102349.56
2023-02-07T20:24:27.907Z,102347.69
2023-02-07T20:26:55.546Z,102345.94
2023-02-07T20:29:23.053Z,102339.66
2023-02-07T20:31:51.951Z,102334.16
2023-02-07T20:34:19.412Z,102343.59
2023-02-07T20:36:46.884Z,102344.66
2023-02-07T20:39:16.543Z,102352.69
2023-02-07T20:41:46.024Z,102351.03
2023-02-07T20:44:17.750Z,102353.94
2023-02-07T20:46:46.549Z,102350.47
2023-02-07T20:49:17.195Z,102353.47
2023-02-07T20:51:45.240Z,102356.41
2023-02-07T20:54:13.612Z,102359.38
2023-02-07T20:56:41.058Z,102358.06
2023-02-07T20:59:17.376Z,102358.28
2023-02-07T21:01:45.293Z,102354.94
2023-02-07T21:04:12.986Z,102353.72
2023-02-07T21:06:43.511Z,102361.53
2023-02-07T21:09:11.822Z,102356.69
2023-02-07T21:12:03.254Z,102364.81
2023-02-07T21:14:32.086Z,102365.41
2023-02-07T21:17:01.536Z,102366.78
2023-02-07T21:19:29.511Z,102363.38
2023-02-07T21:21:58.437Z,102363.22
2023-02-07T21:24:26.534Z,102362.31
2023-02-07T21:26:55.062Z,102359.69
2023-02-07T21:29:23.164Z,102350.94
2023-02-07T21:31:52.040Z,102363.19
2023-02-07T21:34:21.119Z,102353.47
2023-02-07T21:36:49.491Z,102353.69
2023-02-07T21:39:18.388Z,102352.06
2023-02-07T21:41:47.245Z,102345.66
2023-02-07T21:44:15.757Z,102351.81
2023-02-07T21:46:45.875Z,102349.75
2023-02-07T21:52:11.864Z,102352.78
2023-02-07T21:54:40.718Z,102361.72
2023-02-07T21:57:08.228Z,102359.34
2023-02-07T21:59:35.824Z,102362.41
2023-02-07T22:02:03.740Z,102363.31
2023-02-07T22:04:31.362Z,102366.44
2023-02-07T22:06:58.941Z,102369.09
2023-02-07T22:09:26.373Z,102365.88
2023-02-07T22:11:55.303Z,102371.69
2023-02-07T22:14:25.981Z,102368.16
2023-02-07T22:16:54.547Z,102366.63
2023-02-07T22:19:22.653Z,102372.00
2023-02-07T22:21:50.345Z,102365.06
2023-02-07T22:24:19.103Z,102359.97
2023-02-07T22:26:46.554Z,102364.31
2023-02-07T22:29:15.346Z,102372.81
2023-02-07T22:34:55.376Z,102358.94
2023-02-07T22:37:22.831Z,102352.56
2023-02-07T22:39:50.644Z,102347.91
2023-02-07T22:42:18.087Z,102350.56
2023-02-07T22:47:40.192Z,102360.03
2023-02-07T22:50:07.952Z,102365.13
2023-02-07T22:52:35.383Z,102362.19
2023-02-07T22:55:02.790Z,102361.66
2023-02-07T22:57:30.372Z,102358.16
2023-02-07T23:00:00.574Z,102354.06
2023-02-07T23:02:28.126Z,102363.56
2023-02-07T23:04:57.017Z,102362.38
2023-02-07T23:07:26.679Z,102364.94
2023-02-07T23:09:54.446Z,102364.88
2023-02-07T23:12:21.962Z,102363.94
2023-02-07T23:14:49.599Z,102363.81
2023-02-07T23:20:16.104Z,102353.41
2023-02-07T23:25:47.260Z,102358.94
2023-02-07T23:28:15.281Z,102357.25
2023-02-07T23:30:43.317Z,102359.06
2023-02-07T23:33:11.275Z,102361.88
2023-02-07T23:38:38.992Z,102361.47
2023-02-07T23:41:07.698Z,102375.34
2023-02-07T23:43:35.178Z,102369.41
2023-02-07T23:46:02.613Z,102366.63
2023-02-07T23:48:30.282Z,102357.13
2023-02-07T23:54:01.869Z,102364.59
2023-02-07T23:56:29.359Z,102359.66
2023-02-07T23:58:56.816Z,102364.19
